createdAt,value
2018-02-23T00:00:22.011Z,9.10
2018-02-23T00:02:50.351Z,9.00
2018-02-23T00:05:17.912Z,8.43
2018-02-23T00:07:47.471Z,8.67
2018-02-23T00:10:15.790Z,8.60
2018-02-23T00:12:43.357Z,9.50
2018-02-23T00:15:10.985Z,8.80
2018-02-23T00:17:38.562Z,9.77
2018-02-23T00:20:06.131Z,8.17
2018-02-23T00:22:42.124Z,8.80
2018-02-23T00:25:09.678Z,9.07
2018-02-23T00:27:37.256Z,8.70
2018-02-23T00:30:05.619Z,8.60
2018-02-23T00:32:33.246Z,8.23
2018-02-23T00:35:00.796Z,8.30
2018-02-23T00:37:28.387Z,8.57
2018-02-23T00:39:55.973Z,6.97
2018-02-23T00:42:24.469Z,9.00
2018-02-23T00:44:52.813Z,8.70
2018-02-23T00:47:20.364Z,7.70
2018-02-23T00:49:47.959Z,8.33
2018-02-23T00:52:16.290Z,8.97
2018-02-23T00:54:43.882Z,8.97
2018-02-23T00:57:11.450Z,8.97
2018-02-23T00:59:39.778Z,8.57
2018-02-23T01:02:07.382Z,7.83
2018-02-23T01:04:34.949Z,9.53
2018-02-23T01:07:03.295Z,8.83
2018-02-23T01:09:30.914Z,9.20
2018-02-23T01:11:58.465Z,9.63
2018-02-23T01:14:26.028Z,8.70
2018-02-23T01:16:53.615Z,8.40
2018-02-23T01:19:21.171Z,9.63
2018-02-23T01:21:48.770Z,9.03
2018-02-23T01:24:17.184Z,8.60
2018-02-23T01:26:44.748Z,9.03
2018-02-23T01:29:12.318Z,8.27
2018-02-23T01:31:39.936Z,9.23
2018-02-23T01:34:07.524Z,11.03
2018-02-23T01:36:35.146Z,7.20
2018-02-23T01:39:02.736Z,10.40
2018-02-23T01:41:31.073Z,8.50
2018-02-23T01:43:58.671Z,10.03
2018-02-23T01:46:26.988Z,9.83
2018-02-23T01:48:54.562Z,10.30
2018-02-23T01:51:22.193Z,10.00
2018-02-23T01:53:49.766Z,9.93
2018-02-23T01:56:17.397Z,9.40
2018-02-23T01:58:45.718Z,9.30
2018-02-23T02:01:13.286Z,9.60
2018-02-23T02:03:40.909Z,11.13
2018-02-23T02:06:08.465Z,9.40
2018-02-23T02:08:36.036Z,10.13
2018-02-23T02:11:03.647Z,10.57
2018-02-23T02:13:31.206Z,10.90
2018-02-23T02:15:58.760Z,10.80
2018-02-23T02:18:26.365Z,10.25
2018-02-23T02:20:53.938Z,10.63
2018-02-23T02:23:21.567Z,10.60
2018-02-23T02:25:49.912Z,11.98
2018-02-23T02:28:17.514Z,12.25
2018-02-23T02:30:45.147Z,14.15
2018-02-23T02:33:12.737Z,10.53
2018-02-23T02:35:40.315Z,11.43
2018-02-23T02:38:07.926Z,11.27
2018-02-23T02:40:35.504Z,11.00
2018-02-23T02:43:03.861Z,13.20
2018-02-23T02:45:32.316Z,11.60
2018-02-23T02:47:59.997Z,12.60
2018-02-23T02:50:28.391Z,10.47
2018-02-23T02:52:55.972Z,11.07
2018-02-23T02:55:24.308Z,13.07
2018-02-23T02:57:51.923Z,11.77
2018-02-23T03:00:19.493Z,10.50
2018-02-23T03:02:47.045Z,12.70
2018-02-23T03:05:14.645Z,11.17
2018-02-23T03:07:42.223Z,11.03
2018-02-23T03:10:09.822Z,11.23
2018-02-23T03:12:37.393Z,10.33
2018-02-23T03:15:05.013Z,12.13
2018-02-23T03:17:32.574Z,11.63
2018-02-23T03:20:00.160Z,11.23
2018-02-23T03:22:27.759Z,12.43
2018-02-23T03:24:55.358Z,12.20
2018-02-23T03:27:23.707Z,10.80
2018-02-23T03:29:51.279Z,13.33
2018-02-23T03:32:18.877Z,14.10
2018-02-23T03:34:46.442Z,11.77
2018-02-23T03:37:14.080Z,11.88
2018-02-23T03:39:42.420Z,11.57
2018-02-23T03:42:10.003Z,12.50
2018-02-23T03:44:37.639Z,11.57
2018-02-23T03:47:05.211Z,11.07
2018-02-23T03:49:32.769Z,12.10
2018-02-23T03:52:00.383Z,12.17
2018-02-23T03:54:27.968Z,12.80
2018-02-23T03:56:55.532Z,11.40
2018-02-23T03:59:23.180Z,12.60
2018-02-23T04:01:50.750Z,11.27
2018-02-23T04:04:18.333Z,12.10
2018-02-23T04:06:46.029Z,11.33
2018-02-23T04:09:14.350Z,10.97
2018-02-23T04:11:41.922Z,12.90
2018-02-23T04:14:09.539Z,12.17
2018-02-23T04:16:37.099Z,12.27
2018-02-23T04:19:04.662Z,12.60
2018-02-23T04:21:32.273Z,12.70
2018-02-23T04:23:59.837Z,12.53
2018-02-23T04:26:27.408Z,12.53
2018-02-23T04:28:55.810Z,12.25
2018-02-23T04:31:23.382Z,11.93
2018-02-23T04:33:50.953Z,12.00
2018-02-23T04:36:18.565Z,11.80
2018-02-23T04:38:46.137Z,11.48
2018-02-23T04:41:14.527Z,13.13
2018-02-23T04:43:42.105Z,11.68
2018-02-23T04:46:09.669Z,12.37
2018-02-23T04:48:37.278Z,11.53
2018-02-23T04:51:04.854Z,13.02
2018-02-23T04:53:33.196Z,12.57
2018-02-23T04:56:00.873Z,11.63
2018-02-23T04:58:28.419Z,12.32
2018-02-23T05:00:56.009Z,12.55
2018-02-23T05:03:24.427Z,11.10
2018-02-23T05:05:52.006Z,11.30
2018-02-23T05:08:19.577Z,12.70
2018-02-23T05:10:47.230Z,11.15
2018-02-23T05:13:14.786Z,13.10
2018-02-23T05:15:42.363Z,12.95
2018-02-23T05:18:09.998Z,11.98
2018-02-23T05:20:37.584Z,12.85
2018-02-23T05:23:05.940Z,11.52
2018-02-23T05:25:33.565Z,12.65
2018-02-23T05:28:01.907Z,12.00
2018-02-23T05:30:29.496Z,11.90
2018-02-23T05:32:57.879Z,13.20
2018-02-23T05:35:26.225Z,11.88
2018-02-23T05:37:53.846Z,12.15
2018-02-23T05:40:21.436Z,13.57
2018-02-23T05:42:49.083Z,13.57
2018-02-23T05:45:16.723Z,13.05
2018-02-23T05:47:44.295Z,12.32
2018-02-23T05:50:11.877Z,12.27
2018-02-23T05:52:39.484Z,12.73
2018-02-23T05:55:07.836Z,13.68
2018-02-23T05:57:35.472Z,14.40
2018-02-23T06:00:03.051Z,12.95
2018-02-23T06:02:30.639Z,13.20
2018-02-23T06:04:59.039Z,14.05
2018-02-23T06:07:26.626Z,14.25
2018-02-23T06:09:54.208Z,13.38
2018-02-23T06:12:21.840Z,22.23
2018-02-23T06:14:49.423Z,13.45
2018-02-23T06:17:22.664Z,13.52
2018-02-23T06:19:55.870Z,14.63
2018-02-23T06:22:23.499Z,13.95
2018-02-23T06:24:51.912Z,12.80
2018-02-23T06:27:19.501Z,13.82
2018-02-23T06:29:47.073Z,13.80
2018-02-23T06:32:14.716Z,12.43
2018-02-23T06:34:42.329Z,14.45
2018-02-23T06:37:10.735Z,13.80
2018-02-23T06:39:39.851Z,13.70
2018-02-23T06:42:07.477Z,14.18
2018-02-23T06:44:35.171Z,15.90
2018-02-23T06:47:08.586Z,13.40
2018-02-23T06:49:36.178Z,14.93
2018-02-23T06:52:04.527Z,13.68
2018-02-23T06:54:32.133Z,14.70
2018-02-23T06:56:59.751Z,15.80
2018-02-23T06:59:27.323Z,15.40
2018-02-23T07:01:54.890Z,14.10
2018-02-23T07:04:23.312Z,15.63
2018-02-23T07:06:50.887Z,16.23
2018-02-23T07:09:18.485Z,16.35
2018-02-23T07:11:46.119Z,15.88
2018-02-23T07:14:13.707Z,16.02
2018-02-23T07:16:42.031Z,15.77
2018-02-23T07:19:09.719Z,16.12
2018-02-23T07:21:37.300Z,15.25
2018-02-23T07:24:05.686Z,16.00
2018-02-23T07:26:33.311Z,17.37
2018-02-23T07:29:00.933Z,15.23
2018-02-23T07:31:28.584Z,15.35
2018-02-23T07:33:56.285Z,17.62
2018-02-23T07:36:23.938Z,16.27
2018-02-23T07:38:51.537Z,16.52
2018-02-23T07:41:19.179Z,15.88
2018-02-23T07:43:46.760Z,17.10
2018-02-23T07:46:14.330Z,16.25
2018-02-23T07:48:41.979Z,15.73
2018-02-23T07:51:09.551Z,15.00
2018-02-23T07:53:37.141Z,17.12
2018-02-23T07:56:04.781Z,16.80
2018-02-23T07:58:33.128Z,16.83
2018-02-23T08:01:00.700Z,17.02
2018-02-23T08:03:28.326Z,16.10
2018-02-23T08:05:55.908Z,16.55
2018-02-23T08:08:23.536Z,15.50
2018-02-23T08:10:51.111Z,16.05
2018-02-23T08:13:18.683Z,18.60
2018-02-23T08:15:46.332Z,18.02
2018-02-23T08:18:13.916Z,17.27
2018-02-23T08:20:41.482Z,18.50
2018-02-23T08:23:10.201Z,18.83
2018-02-23T08:25:37.892Z,19.65
2018-02-23T08:28:05.725Z,17.77
2018-02-23T08:30:34.138Z,19.47
2018-02-23T08:33:01.713Z,18.35
2018-02-23T08:35:29.288Z,19.27
2018-02-23T08:37:56.914Z,17.30
2018-02-23T08:40:24.478Z,18.10
2018-02-23T08:42:52.056Z,17.67
2018-02-23T08:45:19.682Z,19.33
2018-02-23T08:47:47.248Z,16.37
2018-02-23T08:50:14.819Z,17.57
2018-02-23T08:52:42.480Z,18.33
2018-02-23T08:55:10.047Z,21.33
2018-02-23T08:57:37.655Z,18.65
2018-02-23T09:00:05.249Z,19.27
2018-02-23T09:02:32.813Z,18.60
2018-02-23T09:05:00.444Z,17.80
2018-02-23T09:07:28.011Z,20.30
2018-02-23T09:09:56.401Z,17.63
2018-02-23T09:12:24.774Z,17.37
2018-02-23T09:14:53.110Z,20.27
2018-02-23T09:17:20.695Z,18.40
2018-02-23T09:19:48.313Z,17.83
2018-02-23T09:22:15.874Z,19.17
2018-02-23T09:24:43.460Z,18.07
2018-02-23T09:27:11.124Z,17.93
2018-02-23T09:29:38.656Z,18.63
2018-02-23T09:32:12.164Z,19.40
2018-02-23T09:34:42.662Z,18.93
2018-02-23T09:37:10.236Z,20.73
2018-02-23T09:39:37.860Z,18.65
2018-02-23T09:42:06.218Z,18.40
2018-02-23T09:44:33.799Z,20.85
2018-02-23T09:47:02.139Z,17.92
2018-02-23T09:49:29.750Z,18.60
2018-02-23T09:51:57.319Z,18.43
2018-02-23T09:54:24.959Z,18.43
2018-02-23T09:56:53.289Z,19.40
2018-02-23T09:59:20.864Z,20.70
2018-02-23T10:01:48.504Z,19.90
2018-02-23T10:04:16.073Z,17.70
2018-02-23T10:06:43.642Z,20.10
2018-02-23T10:09:11.288Z,19.50
2018-02-23T10:11:38.861Z,19.17
2018-02-23T10:14:06.457Z,19.70
2018-02-23T10:16:34.799Z,20.23
2018-02-23T10:19:02.387Z,19.80
2018-02-23T10:21:30.786Z,20.77
2018-02-23T10:23:59.122Z,23.70
2018-02-23T10:26:26.678Z,22.37
2018-02-23T10:28:54.297Z,21.00
2018-02-23T10:31:21.880Z,20.53
2018-02-23T10:33:49.455Z,21.37
2018-02-23T10:36:17.068Z,21.63
2018-02-23T10:38:44.630Z,19.20
2018-02-23T10:41:12.258Z,18.70
2018-02-23T10:43:39.832Z,20.30
2018-02-23T10:46:08.172Z,18.80
2018-02-23T10:48:35.774Z,21.43
2018-02-23T10:51:04.115Z,21.57
2018-02-23T10:53:31.732Z,19.90
2018-02-23T10:55:59.306Z,24.73
2018-02-23T10:58:26.899Z,23.40
2018-02-23T11:00:54.520Z,21.33
2018-02-23T11:03:22.100Z,21.10
2018-02-23T11:05:49.703Z,19.97
2018-02-23T11:08:18.060Z,20.40
2018-02-23T11:10:45.631Z,19.70
2018-02-23T11:13:13.244Z,20.40
2018-02-23T11:15:40.811Z,21.90
2018-02-23T11:18:08.420Z,20.80
2018-02-23T11:20:36.761Z,22.00
2018-02-23T11:23:04.324Z,21.50
2018-02-23T11:25:31.922Z,20.80
2018-02-23T11:28:00.268Z,21.87
2018-02-23T11:30:27.876Z,20.40
2018-02-23T11:32:56.225Z,20.50
2018-02-23T11:35:23.829Z,21.00
2018-02-23T11:37:51.473Z,21.80
2018-02-23T11:40:19.096Z,25.50
2018-02-23T11:42:46.664Z,22.17
2018-02-23T11:45:14.234Z,23.27
2018-02-23T11:47:41.836Z,22.70
2018-02-23T11:50:09.427Z,21.37
2018-02-23T11:52:37.011Z,19.37
2018-02-23T11:55:04.627Z,19.60
2018-02-23T11:57:37.995Z,19.63
2018-02-23T12:00:06.337Z,20.47
2018-02-23T12:02:33.890Z,22.70
2018-02-23T12:05:01.455Z,20.00
2018-02-23T12:07:29.065Z,20.80
2018-02-23T12:09:56.609Z,21.97
2018-02-23T12:12:24.163Z,20.23
2018-02-23T12:14:52.573Z,19.87
2018-02-23T12:17:20.136Z,20.40
2018-02-23T12:19:47.702Z,22.03
2018-02-23T12:22:15.308Z,21.80
2018-02-23T12:24:42.864Z,20.07
2018-02-23T12:27:10.405Z,21.93
2018-02-23T12:29:38.013Z,21.10
2018-02-23T12:32:05.566Z,20.67
2018-02-23T12:34:33.895Z,20.67
2018-02-23T12:37:01.500Z,19.50
2018-02-23T12:39:29.836Z,22.30
2018-02-23T12:41:57.393Z,22.10
2018-02-23T12:44:25.001Z,21.13
2018-02-23T12:46:53.359Z,20.43
2018-02-23T12:49:20.931Z,23.27
2018-02-23T12:51:49.250Z,19.80
2018-02-23T12:54:16.832Z,21.23
2018-02-23T12:56:44.699Z,23.20
2018-02-23T12:59:12.366Z,21.50
2018-02-23T13:01:39.994Z,21.23
2018-02-23T13:04:07.582Z,21.37
2018-02-23T13:06:35.159Z,20.97
2018-02-23T13:09:02.764Z,22.00
2018-02-23T13:11:30.338Z,21.90
2018-02-23T13:13:57.938Z,20.53
2018-02-23T13:16:29.440Z,20.30
2018-02-23T13:18:57.057Z,21.93
2018-02-23T13:21:24.599Z,19.93
2018-02-23T13:23:52.165Z,21.70
2018-02-23T13:26:19.775Z,20.77
2018-02-23T13:28:47.338Z,19.53
2018-02-23T13:31:14.904Z,19.97
2018-02-23T13:33:42.489Z,20.23
2018-02-23T13:36:10.036Z,19.30
2018-02-23T13:38:37.660Z,19.30
2018-02-23T13:41:10.820Z,19.10
2018-02-23T13:43:38.421Z,20.57
2018-02-23T13:46:05.993Z,17.83
2018-02-23T13:48:33.549Z,19.47
2018-02-23T13:51:01.160Z,20.23
2018-02-23T13:53:34.483Z,20.70
2018-02-23T13:56:02.870Z,18.97
2018-02-23T13:58:30.425Z,20.70
2018-02-23T14:00:57.997Z,20.33
2018-02-23T14:03:25.588Z,19.23
2018-02-23T14:05:53.202Z,18.67
2018-02-23T14:08:20.786Z,20.90
2018-02-23T14:10:48.345Z,20.80
2018-02-23T14:13:15.901Z,20.30
2018-02-23T14:15:43.563Z,20.40
2018-02-23T14:18:11.126Z,21.40
2018-02-23T14:20:38.690Z,20.93
2018-02-23T14:23:06.301Z,21.40
2018-02-23T14:25:33.847Z,19.47
2018-02-23T14:28:02.178Z,19.67
2018-02-23T14:30:29.801Z,20.20
2018-02-23T14:32:58.152Z,21.17
2018-02-23T14:35:25.701Z,20.13
2018-02-23T14:37:53.321Z,19.87
2018-02-23T14:40:20.881Z,19.23
2018-02-23T14:42:48.427Z,18.53
2018-02-23T14:45:16.816Z,22.30
2018-02-23T14:47:45.140Z,23.70
2018-02-23T14:50:24.687Z,22.07
2018-02-23T14:52:52.277Z,20.67
2018-02-23T14:55:20.603Z,18.77
2018-02-23T14:57:48.225Z,20.90
2018-02-23T15:00:16.578Z,20.43
2018-02-23T15:02:44.200Z,20.03
2018-02-23T15:05:11.760Z,21.30
2018-02-23T15:07:39.308Z,19.50
2018-02-23T15:10:06.908Z,20.47
2018-02-23T15:12:34.472Z,18.77
2018-02-23T15:15:02.033Z,20.77
2018-02-23T15:17:29.609Z,21.43
2018-02-23T15:19:57.147Z,20.77
2018-02-23T15:22:25.862Z,19.67
2018-02-23T15:24:55.204Z,20.93
2018-02-23T15:27:22.790Z,19.90
2018-02-23T15:29:50.336Z,20.03
2018-02-23T15:32:23.903Z,21.23
2018-02-23T15:34:51.468Z,19.83
2018-02-23T15:37:19.029Z,20.80
2018-02-23T15:39:47.588Z,21.37
2018-02-23T15:42:16.030Z,18.13
2018-02-23T15:44:43.687Z,19.80
2018-02-23T15:47:11.262Z,21.13
2018-02-23T15:49:44.442Z,20.10
2018-02-23T15:52:13.525Z,20.87
2018-02-23T15:54:41.087Z,20.73
2018-02-23T15:57:11.164Z,20.93
2018-02-23T15:59:38.763Z,20.00
2018-02-23T16:02:06.355Z,21.00
2018-02-23T16:04:33.954Z,20.83
2018-02-23T16:07:01.516Z,19.20
2018-02-23T16:09:29.115Z,20.87
2018-02-23T16:11:56.682Z,22.43
2018-02-23T16:14:24.303Z,19.73
2018-02-23T16:16:51.909Z,20.80
2018-02-23T16:19:19.468Z,21.10
2018-02-23T16:21:47.885Z,20.67
2018-02-23T16:24:16.268Z,19.83
2018-02-23T16:26:44.601Z,22.13
2018-02-23T16:29:12.207Z,24.87
2018-02-23T16:31:39.846Z,22.20
2018-02-23T16:34:08.221Z,21.80
2018-02-23T16:36:35.811Z,20.27
2018-02-23T16:39:03.466Z,21.70
2018-02-23T16:41:31.063Z,22.20
2018-02-23T16:43:58.624Z,21.43
2018-02-23T16:46:26.247Z,21.23
2018-02-23T16:48:53.829Z,20.47
2018-02-23T16:51:21.451Z,21.23
2018-02-23T16:53:49.092Z,27.27
2018-02-23T16:56:16.664Z,18.27
2018-02-23T16:58:44.233Z,19.43
2018-02-23T17:01:12.627Z,22.40
2018-02-23T17:03:40.979Z,20.50
2018-02-23T17:06:08.606Z,21.77
2018-02-23T17:08:36.166Z,21.23
2018-02-23T17:11:03.722Z,23.90
2018-02-23T17:13:31.315Z,24.20
2018-02-23T17:15:58.910Z,22.00
2018-02-23T17:18:27.307Z,20.53
2018-02-23T17:20:54.897Z,22.90
2018-02-23T17:23:22.474Z,23.90
2018-02-23T17:25:50.096Z,21.80
2018-02-23T17:28:17.667Z,22.50
2018-02-23T17:30:45.288Z,22.17
2018-02-23T17:33:12.862Z,20.73
2018-02-23T17:35:40.507Z,21.00
2018-02-23T17:38:08.901Z,20.40
2018-02-23T17:40:36.477Z,23.73
2018-02-23T17:43:04.793Z,23.97
2018-02-23T17:45:32.429Z,23.27
2018-02-23T17:47:59.991Z,21.50
2018-02-23T17:50:27.559Z,21.60
2018-02-23T17:52:55.225Z,22.80
2018-02-23T17:55:22.891Z,20.77
2018-02-23T17:57:50.546Z,23.20
2018-02-23T18:00:18.125Z,22.63
2018-02-23T18:02:45.744Z,20.50
2018-02-23T18:05:13.306Z,20.53
2018-02-23T18:07:40.884Z,24.33
2018-02-23T18:10:08.476Z,23.03
2018-02-23T18:12:36.806Z,21.20
2018-02-23T18:15:04.363Z,20.73
2018-02-23T18:17:31.990Z,22.17
2018-02-23T18:19:59.557Z,22.03
2018-02-23T18:22:27.443Z,23.07
2018-02-23T18:24:55.005Z,19.97
2018-02-23T18:27:22.561Z,20.43
2018-02-23T18:29:50.146Z,22.73
2018-02-23T18:32:17.740Z,22.77
2018-02-23T18:34:46.050Z,23.17
2018-02-23T18:37:13.622Z,21.87
2018-02-23T18:39:41.200Z,22.53
2018-02-23T18:42:08.742Z,24.00
2018-02-23T18:44:37.129Z,20.93
2018-02-23T18:47:04.671Z,22.03
2018-02-23T18:49:32.269Z,21.37
2018-02-23T18:51:59.824Z,21.37
2018-02-23T18:54:27.382Z,22.53
2018-02-23T18:56:55.260Z,23.17
2018-02-23T18:59:23.627Z,22.93
2018-02-23T19:01:51.202Z,20.00
2018-02-23T19:04:18.763Z,21.80
2018-02-23T19:06:46.341Z,20.70
2018-02-23T19:09:14.717Z,23.97
2018-02-23T19:11:42.842Z,20.87
2018-02-23T19:14:11.794Z,23.00
2018-02-23T19:16:39.437Z,22.60
2018-02-23T19:19:07.801Z,23.87
2018-02-23T19:21:35.383Z,22.53
2018-02-23T19:24:03.880Z,21.37
2018-02-23T19:26:31.480Z,22.93
2018-02-23T19:28:59.027Z,22.20
2018-02-23T19:31:26.619Z,24.30
2018-02-23T19:33:54.244Z,22.20
2018-02-23T19:36:21.808Z,21.50
2018-02-23T19:38:49.377Z,23.20
2018-02-23T19:41:16.955Z,25.10
2018-02-23T19:43:44.589Z,23.20
2018-02-23T19:46:12.157Z,23.20
2018-02-23T19:48:39.708Z,22.60
2018-02-23T19:51:07.283Z,23.00
2018-02-23T19:53:34.833Z,22.97
2018-02-23T19:56:02.386Z,24.00
2018-02-23T19:58:29.965Z,24.87
2018-02-23T20:00:57.544Z,22.10
2018-02-23T20:03:25.105Z,24.43
2018-02-23T20:05:52.688Z,22.60
2018-02-23T20:08:21.208Z,23.70
2018-02-23T20:10:48.766Z,23.17
2018-02-23T20:13:16.361Z,24.00
2018-02-23T20:15:43.930Z,23.97
2018-02-23T20:18:11.577Z,25.97
2018-02-23T20:20:39.158Z,22.90
2018-02-23T20:23:06.742Z,24.93
2018-02-23T20:25:35.287Z,25.37
2018-02-23T20:28:02.852Z,24.73
2018-02-23T20:30:30.460Z,25.43
2018-02-23T20:32:58.013Z,24.57
2018-02-23T20:35:25.590Z,25.30
2018-02-23T20:37:53.249Z,24.60
2018-02-23T20:40:20.915Z,25.50
2018-02-23T20:42:48.476Z,23.80
2018-02-23T20:45:16.058Z,25.13
2018-02-23T20:47:43.643Z,25.33
2018-02-23T20:50:11.207Z,26.73
2018-02-23T20:52:39.569Z,25.17
2018-02-23T20:55:07.153Z,26.03
2018-02-23T20:57:35.481Z,27.10
2018-02-23T21:00:03.087Z,25.10
2018-02-23T21:02:31.412Z,25.23
2018-02-23T21:04:58.992Z,25.10
2018-02-23T21:07:26.581Z,25.03
2018-02-23T21:09:54.910Z,25.73
2018-02-23T21:12:22.510Z,25.77
2018-02-23T21:14:50.114Z,24.13
2018-02-23T21:17:17.720Z,25.40
2018-02-23T21:19:45.302Z,25.83
2018-02-23T21:22:13.627Z,26.10
2018-02-23T21:24:41.224Z,26.47
2018-02-23T21:27:08.783Z,25.00
2018-02-23T21:29:36.342Z,25.20
2018-02-23T21:32:03.932Z,27.53
2018-02-23T21:34:32.245Z,25.67
2018-02-23T21:37:00.585Z,25.93
2018-02-23T21:39:28.924Z,25.80
2018-02-23T21:41:56.761Z,26.83
2018-02-23T21:44:24.359Z,26.33
2018-02-23T21:46:51.932Z,26.33
2018-02-23T21:49:19.513Z,27.93
2018-02-23T21:51:47.158Z,29.43
2018-02-23T21:54:15.484Z,27.47
2018-02-23T21:56:43.056Z,29.13
2018-02-23T21:59:10.607Z,26.40
2018-02-23T22:01:38.178Z,26.47
2018-02-23T22:04:06.613Z,26.00
2018-02-23T22:06:34.182Z,27.77
2018-02-23T22:09:01.748Z,27.40
2018-02-23T22:11:29.292Z,27.77
2018-02-23T22:13:56.916Z,26.97
2018-02-23T22:16:24.457Z,28.57
2018-02-23T22:18:52.773Z,27.23
2018-02-23T22:21:21.129Z,27.40
2018-02-23T22:23:48.688Z,27.40
2018-02-23T22:26:16.227Z,27.87
2018-02-23T22:28:43.807Z,27.70
2018-02-23T22:31:11.365Z,27.87
2018-02-23T22:33:38.928Z,29.00
2018-02-23T22:36:06.500Z,28.27
2018-02-23T22:38:35.466Z,25.67
2018-02-23T22:41:03.913Z,28.43
2018-02-23T22:43:31.483Z,29.80
2018-02-23T22:45:59.048Z,27.40
2018-02-23T22:48:26.790Z,27.63
2018-02-23T22:50:54.411Z,28.87
2018-02-23T22:53:21.987Z,28.97
2018-02-23T22:55:50.308Z,26.10
2018-02-23T22:58:17.913Z,28.33
2018-02-23T23:00:45.452Z,28.40
2018-02-23T23:03:13.009Z,27.17
2018-02-23T23:05:40.592Z,27.40
2018-02-23T23:08:08.172Z,28.93
2018-02-23T23:10:36.494Z,27.43
2018-02-23T23:13:04.066Z,27.80
2018-02-23T23:15:31.668Z,26.80
2018-02-23T23:17:59.974Z,25.43
2018-02-23T23:20:27.533Z,28.60
2018-02-23T23:22:55.109Z,27.33
2018-02-23T23:25:22.655Z,30.10
2018-02-23T23:27:50.237Z,26.83
2018-02-23T23:30:17.797Z,27.63
2018-02-23T23:32:45.394Z,31.10
2018-02-23T23:35:13.716Z,26.87
2018-02-23T23:37:41.268Z,31.37
2018-02-23T23:40:08.836Z,26.97
2018-02-23T23:42:36.375Z,30.17
2018-02-23T23:45:03.940Z,29.50
2018-02-23T23:47:31.502Z,28.67
2018-02-23T23:49:59.067Z,28.80
2018-02-23T23:52:26.667Z,28.05
2018-02-23T23:54:54.210Z,27.97
2018-02-23T23:57:21.777Z,28.00
2018-02-23T23:59:49.362Z,26.97
